sensor_id;sensor_type;location;lat;lon;timestamp;P1;P2;P0
77777;PMS5003;66966;-34.746;138.604;2023-02-28T00:01:35;3;3;
77777;PMS5003;66966;-34.746;138.604;2023-02-28T00:04:01;3;2;
77777;PMS5003;66966;-34.746;138.604;2023-02-28T00:06:26;4;4;
77777;PMS5003;66966;-34.746;138.604;2023-02-28T00:08:51;2;2;
77777;PMS5003;66966;-34.746;138.604;2023-02-28T00:11:17;2;2;
77777;PMS5003;66966;-34.746;138.604;2023-02-28T00:13:43;3;3;
77777;PMS5003;66966;-34.746;138.604;2023-02-28T00:16:08;3;3;
77777;PMS5003;66966;-34.746;138.604;2023-02-28T00:18:33;2;2;
77777;PMS5003;66966;-34.746;138.604;2023-02-28T00:20:59;4;3;
77777;PMS5003;66966;-34.746;138.604;2023-02-28T00:23:24;4;3;
77777;PMS5003;66966;-34.746;138.604;2023-02-28T00:25:49;3;3;
77777;PMS5003;66966;-34.746;138.604;2023-02-28T00:28:14;4;3;
77777;PMS5003;66966;-34.746;138.604;2023-02-28T00:30:40;4;4;
77777;PMS5003;66966;-34.746;138.604;2023-02-28T00:33:05;3;2;
77777;PMS5003;66966;-34.746;138.604;2023-02-28T00:35:31;4;4;
77777;PMS5003;66966;-34.746;138.604;2023-02-28T00:37:56;4;4;
77777;PMS5003;66966;-34.746;138.604;2023-02-28T00:40:21;4;4;
77777;PMS5003;66966;-34.746;138.604;2023-02-28T00:42:47;5;4;
77777;PMS5003;66966;-34.746;138.604;2023-02-28T00:45:12;5;4;
77777;PMS5003;66966;-34.746;138.604;2023-02-28T00:47:38;8;4;
77777;PMS5003;66966;-34.746;138.604;2023-02-28T00:50:03;4;3;
77777;PMS5003;66966;-34.746;138.604;2023-02-28T00:52:28;8;8;
77777;PMS5003;66966;-34.746;138.604;2023-02-28T00:54:53;6;5;
77777;PMS5003;66966;-34.746;138.604;2023-02-28T00:57:19;7;7;
77777;PMS5003;66966;-34.746;138.604;2023-02-28T00:59:45;9;7;
77777;PMS5003;66966;-34.746;138.604;2023-02-28T01:02:10;8;7;
77777;PMS5003;66966;-34.746;138.604;2023-02-28T01:04:35;7;7;
77777;PMS5003;66966;-34.746;138.604;2023-02-28T01:07:00;9;8;
77777;PMS5003;66966;-34.746;138.604;2023-02-28T01:09:26;7;7;
77777;PMS5003;66966;-34.746;138.604;2023-02-28T01:11:52;8;8;
77777;PMS5003;66966;-34.746;138.604;2023-02-28T01:14:17;3;3;
77777;PMS5003;66966;-34.746;138.604;2023-02-28T01:16:42;5;4;
77777;PMS5003;66966;-34.746;138.604;2023-02-28T01:19:07;5;4;
77777;PMS5003;66966;-34.746;138.604;2023-02-28T01:21:32;6;5;
77777;PMS5003;66966;-34.746;138.604;2023-02-28T01:23:58;5;4;
77777;PMS5003;66966;-34.746;138.604;2023-02-28T01:26:23;5;4;
77777;PMS5003;66966;-34.746;138.604;2023-02-28T01:28:49;6;6;
77777;PMS5003;66966;-34.746;138.604;2023-02-28T01:31:14;3;3;
77777;PMS5003;66966;-34.746;138.604;2023-02-28T01:33:39;4;4;
77777;PMS5003;66966;-34.746;138.604;2023-02-28T01:36:06;7;6;
77777;PMS5003;66966;-34.746;138.604;2023-02-28T01:38:30;4;4;
77777;PMS5003;66966;-34.746;138.604;2023-02-28T01:40:55;4;4;
77777;PMS5003;66966;-34.746;138.604;2023-02-28T01:43:22;5;5;
77777;PMS5003;66966;-34.746;138.604;2023-02-28T01:45:46;7;7;
77777;PMS5003;66966;-34.746;138.604;2023-02-28T01:48:11;4;4;
77777;PMS5003;66966;-34.746;138.604;2023-02-28T01:50:41;5;5;
77777;PMS5003;66966;-34.746;138.604;2023-02-28T01:53:03;5;5;
77777;PMS5003;66966;-34.746;138.604;2023-02-28T01:55:27;3;2;
77777;PMS5003;66966;-34.746;138.604;2023-02-28T01:57:53;4;4;
77777;PMS5003;66966;-34.746;138.604;2023-02-28T02:00:20;5;4;
77777;PMS5003;66966;-34.746;138.604;2023-02-28T02:02:44;5;4;
77777;PMS5003;66966;-34.746;138.604;2023-02-28T02:05:09;5;4;
77777;PMS5003;66966;-34.746;138.604;2023-02-28T02:07:35;5;5;
77777;PMS5003;66966;-34.746;138.604;2023-02-28T02:10:01;4;3;
77777;PMS5003;66966;-34.746;138.604;2023-02-28T02:12:26;6;6;
77777;PMS5003;66966;-34.746;138.604;2023-02-28T02:14:53;5;4;
77777;PMS5003;66966;-34.746;138.604;2023-02-28T02:17:18;4;4;
77777;PMS5003;66966;-34.746;138.604;2023-02-28T02:22:12;4;3;
77777;PMS5003;66966;-34.746;138.604;2023-02-28T02:24:36;3;3;
77777;PMS5003;66966;-34.746;138.604;2023-02-28T02:26:59;3;3;
77777;PMS5003;66966;-34.746;138.604;2023-02-28T02:31:52;5;4;
77777;PMS5003;66966;-34.746;138.604;2023-02-28T02:36:38;5;4;
77777;PMS5003;66966;-34.746;138.604;2023-02-28T02:39:04;4;3;
77777;PMS5003;66966;-34.746;138.604;2023-02-28T02:41:31;5;3;
77777;PMS5003;66966;-34.746;138.604;2023-02-28T02:43:54;2;2;
77777;PMS5003;66966;-34.746;138.604;2023-02-28T02:46:19;4;2;
77777;PMS5003;66966;-34.746;138.604;2023-02-28T02:48:44;4;4;
77777;PMS5003;66966;-34.746;138.604;2023-02-28T02:51:10;2;1;
77777;PMS5003;66966;-34.746;138.604;2023-02-28T02:53:36;4;4;
77777;PMS5003;66966;-34.746;138.604;2023-02-28T02:56:00;3;3;
77777;PMS5003;66966;-34.746;138.604;2023-02-28T02:58:25;5;5;
77777;PMS5003;66966;-34.746;138.604;2023-02-28T03:00:52;2;2;
77777;PMS5003;66966;-34.746;138.604;2023-02-28T03:03:15;4;4;
77777;PMS5003;66966;-34.746;138.604;2023-02-28T03:05:42;2;2;
77777;PMS5003;66966;-34.746;138.604;2023-02-28T03:08:06;5;4;
77777;PMS5003;66966;-34.746;138.604;2023-02-28T03:10:33;2;2;
77777;PMS5003;66966;-34.746;138.604;2023-02-28T03:13:00;3;3;
77777;PMS5003;66966;-34.746;138.604;2023-02-28T03:15:23;5;3;
77777;PMS5003;66966;-34.746;138.604;2023-02-28T03:17:50;5;3;
77777;PMS5003;66966;-34.746;138.604;2023-02-28T03:20:15;3;3;
77777;PMS5003;66966;-34.746;138.604;2023-02-28T03:22:45;5;3;
77777;PMS5003;66966;-34.746;138.604;2023-02-28T03:25:05;3;3;
77777;PMS5003;66966;-34.746;138.604;2023-02-28T03:27:29;3;3;
77777;PMS5003;66966;-34.746;138.604;2023-02-28T03:29:56;4;4;
77777;PMS5003;66966;-34.746;138.604;2023-02-28T03:32:23;3;3;
77777;PMS5003;66966;-34.746;138.604;2023-02-28T03:34:46;3;3;
77777;PMS5003;66966;-34.746;138.604;2023-02-28T03:37:10;3;2;
77777;PMS5003;66966;-34.746;138.604;2023-02-28T03:39:35;4;3;
77777;PMS5003;66966;-34.746;138.604;2023-02-28T03:42:00;4;3;
77777;PMS5003;66966;-34.746;138.604;2023-02-28T03:44:25;3;3;
77777;PMS5003;66966;-34.746;138.604;2023-02-28T03:46:52;3;3;
77777;PMS5003;66966;-34.746;138.604;2023-02-28T03:49:16;3;3;
77777;PMS5003;66966;-34.746;138.604;2023-02-28T03:51:41;3;3;
77777;PMS5003;66966;-34.746;138.604;2023-02-28T03:54:07;4;3;
77777;PMS5003;66966;-34.746;138.604;2023-02-28T03:56:32;3;3;
77777;PMS5003;66966;-34.746;138.604;2023-02-28T03:58:58;3;2;
77777;PMS5003;66966;-34.746;138.604;2023-02-28T04:01:23;3;2;
77777;PMS5003;66966;-34.746;138.604;2023-02-28T04:03:47;2;2;
77777;PMS5003;66966;-34.746;138.604;2023-02-28T04:06:14;3;3;
77777;PMS5003;66966;-34.746;138.604;2023-02-28T04:08:38;4;2;
77777;PMS5003;66966;-34.746;138.604;2023-02-28T04:11:04;5;4;
77777;PMS5003;66966;-34.746;138.604;2023-02-28T04:13:29;4;3;
77777;PMS5003;66966;-34.746;138.604;2023-02-28T04:15:53;2;2;
77777;PMS5003;66966;-34.746;138.604;2023-02-28T04:18:19;3;3;
77777;PMS5003;66966;-34.746;138.604;2023-02-28T04:20:44;3;3;
77777;PMS5003;66966;-34.746;138.604;2023-02-28T04:23:10;4;4;
77777;PMS5003;66966;-34.746;138.604;2023-02-28T04:25:35;3;2;
77777;PMS5003;66966;-34.746;138.604;2023-02-28T04:28:00;2;2;
77777;PMS5003;66966;-34.746;138.604;2023-02-28T04:30:26;2;1;
77777;PMS5003;66966;-34.746;138.604;2023-02-28T04:32:51;2;2;
77777;PMS5003;66966;-34.746;138.604;2023-02-28T04:35:16;1;1;
77777;PMS5003;66966;-34.746;138.604;2023-02-28T04:37:42;2;2;
77777;PMS5003;66966;-34.746;138.604;2023-02-28T04:40:07;2;2;
77777;PMS5003;66966;-34.746;138.604;2023-02-28T04:42:32;3;3;
77777;PMS5003;66966;-34.746;138.604;2023-02-28T04:44:57;4;3;
77777;PMS5003;66966;-34.746;138.604;2023-02-28T04:47:22;3;3;
77777;PMS5003;66966;-34.746;138.604;2023-02-28T04:49:48;3;3;
77777;PMS5003;66966;-34.746;138.604;2023-02-28T04:52:13;3;2;
77777;PMS5003;66966;-34.746;138.604;2023-02-28T04:54:38;4;4;
77777;PMS5003;66966;-34.746;138.604;2023-02-28T04:57:03;4;4;
77777;PMS5003;66966;-34.746;138.604;2023-02-28T04:59:29;5;3;
77777;PMS5003;66966;-34.746;138.604;2023-02-28T05:01:55;2;2;
77777;PMS5003;66966;-34.746;138.604;2023-02-28T05:04:19;4;3;
77777;PMS5003;66966;-34.746;138.604;2023-02-28T05:06:44;3;3;
77777;PMS5003;66966;-34.746;138.604;2023-02-28T05:09:10;4;3;
77777;PMS5003;66966;-34.746;138.604;2023-02-28T05:11:35;3;3;
77777;PMS5003;66966;-34.746;138.604;2023-02-28T05:14:01;3;3;
77777;PMS5003;66966;-34.746;138.604;2023-02-28T05:16:26;1;1;
77777;PMS5003;66966;-34.746;138.604;2023-02-28T05:18:51;3;3;
77777;PMS5003;66966;-34.746;138.604;2023-02-28T05:23:41;2;2;
77777;PMS5003;66966;-34.746;138.604;2023-02-28T05:26:07;2;2;
77777;PMS5003;66966;-34.746;138.604;2023-02-28T05:28:32;2;2;
77777;PMS5003;66966;-34.746;138.604;2023-02-28T05:30:57;3;3;
77777;PMS5003;66966;-34.746;138.604;2023-02-28T05:33:23;1;1;
77777;PMS5003;66966;-34.746;138.604;2023-02-28T05:35:48;2;2;
77777;PMS5003;66966;-34.746;138.604;2023-02-28T05:38:13;3;3;
77777;PMS5003;66966;-34.746;138.604;2023-02-28T05:40:38;5;2;
77777;PMS5003;66966;-34.746;138.604;2023-02-28T05:43:03;3;2;
77777;PMS5003;66966;-34.746;138.604;2023-02-28T05:45:29;2;2;
77777;PMS5003;66966;-34.746;138.604;2023-02-28T05:47:54;0;0;
77777;PMS5003;66966;-34.746;138.604;2023-02-28T05:50:20;3;2;
77777;PMS5003;66966;-34.746;138.604;2023-02-28T05:52:44;2;2;
77777;PMS5003;66966;-34.746;138.604;2023-02-28T05:55:10;3;2;
77777;PMS5003;66966;-34.746;138.604;2023-02-28T05:57:35;3;3;
77777;PMS5003;66966;-34.746;138.604;2023-02-28T06:00:00;2;2;
77777;PMS5003;66966;-34.746;138.604;2023-02-28T06:02:26;5;2;
77777;PMS5003;66966;-34.746;138.604;2023-02-28T06:04:51;2;2;
77777;PMS5003;66966;-34.746;138.604;2023-02-28T06:07:16;2;2;
77777;PMS5003;66966;-34.746;138.604;2023-02-28T06:09:42;3;3;
77777;PMS5003;66966;-34.746;138.604;2023-02-28T06:12:07;3;3;
77777;PMS5003;66966;-34.746;138.604;2023-02-28T06:14:33;3;3;
77777;PMS5003;66966;-34.746;138.604;2023-02-28T06:16:57;2;2;
77777;PMS5003;66966;-34.746;138.604;2023-02-28T06:19:22;2;2;
77777;PMS5003;66966;-34.746;138.604;2023-02-28T06:21:49;2;1;
77777;PMS5003;66966;-34.746;138.604;2023-02-28T06:24:13;3;2;
77777;PMS5003;66966;-34.746;138.604;2023-02-28T06:26:38;4;3;
77777;PMS5003;66966;-34.746;138.604;2023-02-28T06:29:04;3;2;
77777;PMS5003;66966;-34.746;138.604;2023-02-28T06:31:29;3;3;
77777;PMS5003;66966;-34.746;138.604;2023-02-28T06:33:55;2;2;
77777;PMS5003;66966;-34.746;138.604;2023-02-28T06:36:19;2;2;
77777;PMS5003;66966;-34.746;138.604;2023-02-28T06:38:45;4;4;
77777;PMS5003;66966;-34.746;138.604;2023-02-28T06:41:10;2;2;
77777;PMS5003;66966;-34.746;138.604;2023-02-28T06:43:37;2;2;
77777;PMS5003;66966;-34.746;138.604;2023-02-28T06:46:02;3;2;
77777;PMS5003;66966;-34.746;138.604;2023-02-28T06:48:26;3;3;
77777;PMS5003;66966;-34.746;138.604;2023-02-28T06:50:51;1;0;
77777;PMS5003;66966;-34.746;138.604;2023-02-28T06:53:17;3;2;
77777;PMS5003;66966;-34.746;138.604;2023-02-28T06:55:42;1;1;
77777;PMS5003;66966;-34.746;138.604;2023-02-28T06:58:07;1;1;
77777;PMS5003;66966;-34.746;138.604;2023-02-28T07:00:32;2;2;
77777;PMS5003;66966;-34.746;138.604;2023-02-28T07:02:58;3;2;
77777;PMS5003;66966;-34.746;138.604;2023-02-28T07:05:23;1;1;
77777;PMS5003;66966;-34.746;138.604;2023-02-28T07:07:48;2;2;
77777;PMS5003;66966;-34.746;138.604;2023-02-28T07:10:14;0;0;
77777;PMS5003;66966;-34.746;138.604;2023-02-28T07:12:39;2;2;
77777;PMS5003;66966;-34.746;138.604;2023-02-28T07:15:05;1;1;
77777;PMS5003;66966;-34.746;138.604;2023-02-28T07:17:30;1;1;
77777;PMS5003;66966;-34.746;138.604;2023-02-28T07:19:55;3;2;
77777;PMS5003;66966;-34.746;138.604;2023-02-28T07:22:20;1;1;
77777;PMS5003;66966;-34.746;138.604;2023-02-28T07:24:45;2;2;
77777;PMS5003;66966;-34.746;138.604;2023-02-28T07:27:11;2;2;
77777;PMS5003;66966;-34.746;138.604;2023-02-28T07:29:36;1;1;
77777;PMS5003;66966;-34.746;138.604;2023-02-28T07:32:01;5;4;
77777;PMS5003;66966;-34.746;138.604;2023-02-28T07:34:27;0;0;
77777;PMS5003;66966;-34.746;138.604;2023-02-28T07:36:53;1;1;
77777;PMS5003;66966;-34.746;138.604;2023-02-28T07:39:17;0;0;
77777;PMS5003;66966;-34.746;138.604;2023-02-28T07:41:42;2;1;
77777;PMS5003;66966;-34.746;138.604;2023-02-28T07:44:07;0;0;
77777;PMS5003;66966;-34.746;138.604;2023-02-28T07:46:33;3;3;
77777;PMS5003;66966;-34.746;138.604;2023-02-28T07:48:58;3;2;
77777;PMS5003;66966;-34.746;138.604;2023-02-28T07:51:23;2;1;
77777;PMS5003;66966;-34.746;138.604;2023-02-28T07:53:49;1;1;
77777;PMS5003;66966;-34.746;138.604;2023-02-28T07:56:14;2;2;
77777;PMS5003;66966;-34.746;138.604;2023-02-28T07:58:40;2;1;
77777;PMS5003;66966;-34.746;138.604;2023-02-28T08:01:06;2;2;
77777;PMS5003;66966;-34.746;138.604;2023-02-28T08:03:30;1;1;
77777;PMS5003;66966;-34.746;138.604;2023-02-28T08:05:55;1;1;
77777;PMS5003;66966;-34.746;138.604;2023-02-28T08:08:20;2;1;
77777;PMS5003;66966;-34.746;138.604;2023-02-28T08:10:46;2;1;
77777;PMS5003;66966;-34.746;138.604;2023-02-28T08:13:11;2;2;
77777;PMS5003;66966;-34.746;138.604;2023-02-28T08:15:37;2;2;
77777;PMS5003;66966;-34.746;138.604;2023-02-28T08:18:02;2;0;
77777;PMS5003;66966;-34.746;138.604;2023-02-28T08:20:27;1;1;
77777;PMS5003;66966;-34.746;138.604;2023-02-28T08:22:52;2;1;
77777;PMS5003;66966;-34.746;138.604;2023-02-28T08:25:18;2;1;
77777;PMS5003;66966;-34.746;138.604;2023-02-28T08:27:43;1;1;
77777;PMS5003;66966;-34.746;138.604;2023-02-28T08:30:10;0;0;
77777;PMS5003;66966;-34.746;138.604;2023-02-28T08:32:34;1;1;
77777;PMS5003;66966;-34.746;138.604;2023-02-28T08:34:59;1;1;
77777;PMS5003;66966;-34.746;138.604;2023-02-28T08:37:25;2;2;
77777;PMS5003;66966;-34.746;138.604;2023-02-28T08:39:50;0;0;
77777;PMS5003;66966;-34.746;138.604;2023-02-28T08:42:15;1;1;
77777;PMS5003;66966;-34.746;138.604;2023-02-28T08:44:40;1;1;
77777;PMS5003;66966;-34.746;138.604;2023-02-28T08:47:06;0;0;
77777;PMS5003;66966;-34.746;138.604;2023-02-28T08:49:32;1;1;
77777;PMS5003;66966;-34.746;138.604;2023-02-28T08:51:58;0;0;
77777;PMS5003;66966;-34.746;138.604;2023-02-28T08:54:22;1;1;
77777;PMS5003;66966;-34.746;138.604;2023-02-28T08:56:47;1;1;
77777;PMS5003;66966;-34.746;138.604;2023-02-28T08:59:13;1;1;
77777;PMS5003;66966;-34.746;138.604;2023-02-28T09:01:39;1;1;
77777;PMS5003;66966;-34.746;138.604;2023-02-28T09:04:03;2;1;
77777;PMS5003;66966;-34.746;138.604;2023-02-28T09:06:29;2;2;
77777;PMS5003;66966;-34.746;138.604;2023-02-28T09:08:56;1;1;
77777;PMS5003;66966;-34.746;138.604;2023-02-28T09:11:19;0;0;
77777;PMS5003;66966;-34.746;138.604;2023-02-28T09:13:45;1;0;
77777;PMS5003;66966;-34.746;138.604;2023-02-28T09:16:11;2;0;
77777;PMS5003;66966;-34.746;138.604;2023-02-28T09:18:36;1;1;
77777;PMS5003;66966;-34.746;138.604;2023-02-28T09:21:02;1;1;
77777;PMS5003;66966;-34.746;138.604;2023-02-28T09:23:26;0;0;
77777;PMS5003;66966;-34.746;138.604;2023-02-28T09:25:52;1;1;
77777;PMS5003;66966;-34.746;138.604;2023-02-28T09:28:17;1;1;
77777;PMS5003;66966;-34.746;138.604;2023-02-28T09:30:42;1;1;
77777;PMS5003;66966;-34.746;138.604;2023-02-28T09:33:07;1;1;
77777;PMS5003;66966;-34.746;138.604;2023-02-28T09:35:33;0;0;
77777;PMS5003;66966;-34.746;138.604;2023-02-28T09:37:59;2;1;
77777;PMS5003;66966;-34.746;138.604;2023-02-28T09:40:24;0;0;
77777;PMS5003;66966;-34.746;138.604;2023-02-28T09:42:50;1;1;
77777;PMS5003;66966;-34.746;138.604;2023-02-28T09:45:19;1;0;
77777;PMS5003;66966;-34.746;138.604;2023-02-28T09:47:40;0;0;
77777;PMS5003;66966;-34.746;138.604;2023-02-28T09:50:08;1;1;
77777;PMS5003;66966;-34.746;138.604;2023-02-28T09:52:32;1;1;
77777;PMS5003;66966;-34.746;138.604;2023-02-28T09:54:57;0;0;
77777;PMS5003;66966;-34.746;138.604;2023-02-28T09:57:25;1;0;
77777;PMS5003;66966;-34.746;138.604;2023-02-28T09:59:51;0;0;
77777;PMS5003;66966;-34.746;138.604;2023-02-28T10:02:17;0;0;
77777;PMS5003;66966;-34.746;138.604;2023-02-28T10:04:41;0;0;
77777;PMS5003;66966;-34.746;138.604;2023-02-28T10:07:05;2;1;
77777;PMS5003;66966;-34.746;138.604;2023-02-28T10:09:30;1;1;
77777;PMS5003;66966;-34.746;138.604;2023-02-28T10:11:56;1;0;
77777;PMS5003;66966;-34.746;138.604;2023-02-28T10:14:21;1;1;
77777;PMS5003;66966;-34.746;138.604;2023-02-28T10:16:46;0;0;
77777;PMS5003;66966;-34.746;138.604;2023-02-28T10:19:11;1;1;
77777;PMS5003;66966;-34.746;138.604;2023-02-28T10:21:38;0;0;
77777;PMS5003;66966;-34.746;138.604;2023-02-28T10:24:05;0;0;
77777;PMS5003;66966;-34.746;138.604;2023-02-28T10:26:27;0;0;
77777;PMS5003;66966;-34.746;138.604;2023-02-28T10:28:53;0;0;
77777;PMS5003;66966;-34.746;138.604;2023-02-28T10:31:19;0;0;
77777;PMS5003;66966;-34.746;138.604;2023-02-28T10:33:43;0;0;
77777;PMS5003;66966;-34.746;138.604;2023-02-28T10:36:10;1;0;
77777;PMS5003;66966;-34.746;138.604;2023-02-28T10:38:35;0;0;
77777;PMS5003;66966;-34.746;138.604;2023-02-28T10:41:06;1;1;
77777;PMS5003;66966;-34.746;138.604;2023-02-28T10:43:25;0;0;
77777;PMS5003;66966;-34.746;138.604;2023-02-28T10:45:55;1;0;
77777;PMS5003;66966;-34.746;138.604;2023-02-28T10:50:43;1;0;
77777;PMS5003;66966;-34.746;138.604;2023-02-28T10:55:32;1;1;
77777;PMS5003;66966;-34.746;138.604;2023-02-28T10:57:58;0;0;
77777;PMS5003;66966;-34.746;138.604;2023-02-28T11:00:24;0;0;
77777;PMS5003;66966;-34.746;138.604;2023-02-28T11:02:49;0;0;
77777;PMS5003;66966;-34.746;138.604;2023-02-28T11:05:24;3;2;
77777;PMS5003;66966;-34.746;138.604;2023-02-28T11:07:39;0;0;
77777;PMS5003;66966;-34.746;138.604;2023-02-28T11:10:05;1;1;
77777;PMS5003;66966;-34.746;138.604;2023-02-28T11:12:33;0;0;
77777;PMS5003;66966;-34.746;138.604;2023-02-28T11:14:56;1;1;
77777;PMS5003;66966;-34.746;138.604;2023-02-28T11:17:22;0;0;
77777;PMS5003;66966;-34.746;138.604;2023-02-28T11:19:47;2;1;
77777;PMS5003;66966;-34.746;138.604;2023-02-28T11:22:15;2;0;
77777;PMS5003;66966;-34.746;138.604;2023-02-28T11:24:40;1;1;
77777;PMS5003;66966;-34.746;138.604;2023-02-28T11:27:03;1;1;
77777;PMS5003;66966;-34.746;138.604;2023-02-28T11:29:29;1;1;
77777;PMS5003;66966;-34.746;138.604;2023-02-28T11:32:04;0;0;
77777;PMS5003;66966;-34.746;138.604;2023-02-28T11:34:23;0;0;
77777;PMS5003;66966;-34.746;138.604;2023-02-28T11:36:45;1;1;
77777;PMS5003;66966;-34.746;138.604;2023-02-28T11:39:11;0;0;
77777;PMS5003;66966;-34.746;138.604;2023-02-28T11:41:41;1;0;
77777;PMS5003;66966;-34.746;138.604;2023-02-28T11:44:08;1;1;
77777;PMS5003;66966;-34.746;138.604;2023-02-28T11:46:29;0;0;
77777;PMS5003;66966;-34.746;138.604;2023-02-28T11:48:54;2;1;
77777;PMS5003;66966;-34.746;138.604;2023-02-28T11:51:20;3;3;
77777;PMS5003;66966;-34.746;138.604;2023-02-28T11:53:47;1;1;
77777;PMS5003;66966;-34.746;138.604;2023-02-28T11:56:09;1;1;
77777;PMS5003;66966;-34.746;138.604;2023-02-28T11:58:36;1;0;
77777;PMS5003;66966;-34.746;138.604;2023-02-28T12:01:04;0;0;
77777;PMS5003;66966;-34.746;138.604;2023-02-28T12:03:29;0;0;
77777;PMS5003;66966;-34.746;138.604;2023-02-28T12:05:52;1;1;
77777;PMS5003;66966;-34.746;138.604;2023-02-28T12:08:19;2;0;
77777;PMS5003;66966;-34.746;138.604;2023-02-28T12:10:44;1;1;
77777;PMS5003;66966;-34.746;138.604;2023-02-28T12:13:10;2;0;
77777;PMS5003;66966;-34.746;138.604;2023-02-28T12:15:38;0;0;
77777;PMS5003;66966;-34.746;138.604;2023-02-28T12:18:03;1;1;
77777;PMS5003;66966;-34.746;138.604;2023-02-28T12:20:25;1;1;
77777;PMS5003;66966;-34.746;138.604;2023-02-28T12:22:50;1;0;
77777;PMS5003;66966;-34.746;138.604;2023-02-28T12:27:40;0;0;
77777;PMS5003;66966;-34.746;138.604;2023-02-28T12:30:08;0;0;
77777;PMS5003;66966;-34.746;138.604;2023-02-28T12:32:31;0;0;
77777;PMS5003;66966;-34.746;138.604;2023-02-28T12:34:56;0;0;
77777;PMS5003;66966;-34.746;138.604;2023-02-28T12:37:22;0;0;
77777;PMS5003;66966;-34.746;138.604;2023-02-28T12:39:48;1;0;
77777;PMS5003;66966;-34.746;138.604;2023-02-28T12:42:13;1;1;
77777;PMS5003;66966;-34.746;138.604;2023-02-28T12:44:39;0;0;
77777;PMS5003;66966;-34.746;138.604;2023-02-28T12:47:04;0;0;
77777;PMS5003;66966;-34.746;138.604;2023-02-28T12:49:30;0;0;
77777;PMS5003;66966;-34.746;138.604;2023-02-28T12:51:54;0;0;
77777;PMS5003;66966;-34.746;138.604;2023-02-28T12:54:21;1;1;
77777;PMS5003;66966;-34.746;138.604;2023-02-28T12:56:46;0;0;
77777;PMS5003;66966;-34.746;138.604;2023-02-28T12:59:12;0;0;
77777;PMS5003;66966;-34.746;138.604;2023-02-28T13:01:42;2;1;
77777;PMS5003;66966;-34.746;138.604;2023-02-28T13:06:34;0;0;
77777;PMS5003;66966;-34.746;138.604;2023-02-28T13:11:24;2;0;
77777;PMS5003;66966;-34.746;138.604;2023-02-28T13:13:43;0;0;
77777;PMS5003;66966;-34.746;138.604;2023-02-28T13:16:09;2;0;
77777;PMS5003;66966;-34.746;138.604;2023-02-28T13:18:35;1;0;
77777;PMS5003;66966;-34.746;138.604;2023-02-28T13:21:00;3;1;
77777;PMS5003;66966;-34.746;138.604;2023-02-28T13:25:51;2;2;
77777;PMS5003;66966;-34.746;138.604;2023-02-28T13:40:27;1;1;
77777;PMS5003;66966;-34.746;138.604;2023-02-28T13:42:49;1;1;
77777;PMS5003;66966;-34.746;138.604;2023-02-28T13:45:21;0;0;
77777;PMS5003;66966;-34.746;138.604;2023-02-28T13:47:41;2;1;
77777;PMS5003;66966;-34.746;138.604;2023-02-28T13:52:31;0;0;
77777;PMS5003;66966;-34.746;138.604;2023-02-28T13:54:59;1;1;
77777;PMS5003;66966;-34.746;138.604;2023-02-28T13:57:24;1;0;
77777;PMS5003;66966;-34.746;138.604;2023-02-28T13:59:49;0;0;
77777;PMS5003;66966;-34.746;138.604;2023-02-28T14:04:44;1;1;
77777;PMS5003;66966;-34.746;138.604;2023-02-28T14:07:04;2;2;
77777;PMS5003;66966;-34.746;138.604;2023-02-28T14:09:31;2;1;
77777;PMS5003;66966;-34.746;138.604;2023-02-28T14:11:55;0;0;
77777;PMS5003;66966;-34.746;138.604;2023-02-28T14:16:47;1;0;
77777;PMS5003;66966;-34.746;138.604;2023-02-28T14:19:12;0;0;
77777;PMS5003;66966;-34.746;138.604;2023-02-28T14:21:39;0;0;
77777;PMS5003;66966;-34.746;138.604;2023-02-28T14:24:07;0;0;
77777;PMS5003;66966;-34.746;138.604;2023-02-28T14:26:32;2;1;
77777;PMS5003;66966;-34.746;138.604;2023-02-28T14:28:59;1;1;
77777;PMS5003;66966;-34.746;138.604;2023-02-28T14:31:22;0;0;
77777;PMS5003;66966;-34.746;138.604;2023-02-28T14:33:48;2;1;
77777;PMS5003;66966;-34.746;138.604;2023-02-28T14:36:13;1;0;
77777;PMS5003;66966;-34.746;138.604;2023-02-28T14:38:37;0;0;
77777;PMS5003;66966;-34.746;138.604;2023-02-28T14:41:03;0;0;
77777;PMS5003;66966;-34.746;138.604;2023-02-28T14:43:27;0;0;
77777;PMS5003;66966;-34.746;138.604;2023-02-28T14:45:53;0;0;
77777;PMS5003;66966;-34.746;138.604;2023-02-28T14:48:18;1;1;
77777;PMS5003;66966;-34.746;138.604;2023-02-28T14:50:48;0;0;
77777;PMS5003;66966;-34.746;138.604;2023-02-28T14:53:10;0;0;
77777;PMS5003;66966;-34.746;138.604;2023-02-28T14:55:35;1;1;
77777;PMS5003;66966;-34.746;138.604;2023-02-28T14:58:01;0;0;
77777;PMS5003;66966;-34.746;138.604;2023-02-28T15:00:27;1;1;
77777;PMS5003;66966;-34.746;138.604;2023-02-28T15:02:51;1;0;
77777;PMS5003;66966;-34.746;138.604;2023-02-28T15:05:21;1;1;
77777;PMS5003;66966;-34.746;138.604;2023-02-28T15:07:42;0;0;
77777;PMS5003;66966;-34.746;138.604;2023-02-28T15:10:09;1;1;
77777;PMS5003;66966;-34.746;138.604;2023-02-28T15:12:33;0;0;
77777;PMS5003;66966;-34.746;138.604;2023-02-28T15:14:59;0;0;
77777;PMS5003;66966;-34.746;138.604;2023-02-28T15:17:25;0;0;
77777;PMS5003;66966;-34.746;138.604;2023-02-28T15:19:50;1;0;
77777;PMS5003;66966;-34.746;138.604;2023-02-28T15:22:17;0;0;
77777;PMS5003;66966;-34.746;138.604;2023-02-28T15:24:41;1;0;
77777;PMS5003;66966;-34.746;138.604;2023-02-28T15:27:07;1;1;
77777;PMS5003;66966;-34.746;138.604;2023-02-28T15:29:34;0;0;
77777;PMS5003;66966;-34.746;138.604;2023-02-28T15:32:00;0;0;
77777;PMS5003;66966;-34.746;138.604;2023-02-28T15:34:26;1;1;
77777;PMS5003;66966;-34.746;138.604;2023-02-28T15:36:48;0;0;
77777;PMS5003;66966;-34.746;138.604;2023-02-28T15:39:20;1;1;
77777;PMS5003;66966;-34.746;138.604;2023-02-28T15:41:40;0;0;
77777;PMS5003;66966;-34.746;138.604;2023-02-28T15:46:30;1;1;
77777;PMS5003;66966;-34.746;138.604;2023-02-28T15:48:56;0;0;
77777;PMS5003;66966;-34.746;138.604;2023-02-28T15:51:22;0;0;
77777;PMS5003;66966;-34.746;138.604;2023-02-28T15:53:48;0;0;
77777;PMS5003;66966;-34.746;138.604;2023-02-28T15:56:16;0;0;
77777;PMS5003;66966;-34.746;138.604;2023-02-28T15:58:38;0;0;
77777;PMS5003;66966;-34.746;138.604;2023-02-28T16:01:06;1;0;
77777;PMS5003;66966;-34.746;138.604;2023-02-28T16:03:35;1;0;
77777;PMS5003;66966;-34.746;138.604;2023-02-28T16:08:20;0;0;
77777;PMS5003;66966;-34.746;138.604;2023-02-28T16:10:45;1;0;
77777;PMS5003;66966;-34.746;138.604;2023-02-28T16:13:11;0;0;
77777;PMS5003;66966;-34.746;138.604;2023-02-28T16:15:37;0;0;
77777;PMS5003;66966;-34.746;138.604;2023-02-28T16:18:02;1;0;
77777;PMS5003;66966;-34.746;138.604;2023-02-28T16:20:29;1;0;
77777;PMS5003;66966;-34.746;138.604;2023-02-28T16:22:53;0;0;
77777;PMS5003;66966;-34.746;138.604;2023-02-28T16:25:19;0;0;
77777;PMS5003;66966;-34.746;138.604;2023-02-28T16:27:45;1;0;
77777;PMS5003;66966;-34.746;138.604;2023-02-28T16:30:15;0;0;
77777;PMS5003;66966;-34.746;138.604;2023-02-28T16:32:35;1;1;
77777;PMS5003;66966;-34.746;138.604;2023-02-28T16:35:00;0;0;
77777;PMS5003;66966;-34.746;138.604;2023-02-28T16:37:27;0;0;